sensor_id;sensor_type;location;lat;lon;timestamp;P1;durP1;ratioP1;P2;durP2;ratioP2
77571;SDS011;67214;47.454;18.966;2023-02-21T00:00:03;36.68;;;22.93;;
77571;SDS011;67214;47.454;18.966;2023-02-21T00:02:49;44.73;;;25.48;;
77571;SDS011;67214;47.454;18.966;2023-02-21T00:05:35;36.40;;;22.10;;
77571;SDS011;67214;47.454;18.966;2023-02-21T00:08:20;35.48;;;20.55;;
77571;SDS011;67214;47.454;18.966;2023-02-21T00:11:05;36.08;;;20.00;;
77571;SDS011;67214;47.454;18.966;2023-02-21T00:13:51;36.15;;;20.88;;
77571;SDS011;67214;47.454;18.966;2023-02-21T00:16:36;33.38;;;19.60;;
77571;SDS011;67214;47.454;18.966;2023-02-21T00:19:21;31.10;;;19.30;;
77571;SDS011;67214;47.454;18.966;2023-02-21T00:22:06;31.48;;;19.10;;
77571;SDS011;67214;47.454;18.966;2023-02-21T00:24:51;30.68;;;19.90;;
77571;SDS011;67214;47.454;18.966;2023-02-21T00:27:37;37.35;;;20.92;;
77571;SDS011;67214;47.454;18.966;2023-02-21T00:30:22;30.52;;;18.65;;
77571;SDS011;67214;47.454;18.966;2023-02-21T00:33:07;34.20;;;18.90;;
77571;SDS011;67214;47.454;18.966;2023-02-21T00:35:52;33.85;;;19.10;;
77571;SDS011;67214;47.454;18.966;2023-02-21T00:38:37;32.63;;;18.75;;
77571;SDS011;67214;47.454;18.966;2023-02-21T00:41:22;31.70;;;19.98;;
77571;SDS011;67214;47.454;18.966;2023-02-21T00:44:08;30.25;;;19.02;;
77571;SDS011;67214;47.454;18.966;2023-02-21T00:46:54;29.12;;;18.82;;
77571;SDS011;67214;47.454;18.966;2023-02-21T00:49:39;28.42;;;18.98;;
77571;SDS011;67214;47.454;18.966;2023-02-21T00:52:24;33.13;;;19.00;;
77571;SDS011;67214;47.454;18.966;2023-02-21T00:55:09;30.82;;;18.60;;
77571;SDS011;67214;47.454;18.966;2023-02-21T00:57:55;27.62;;;17.82;;
77571;SDS011;67214;47.454;18.966;2023-02-21T01:00:41;28.57;;;18.25;;
77571;SDS011;67214;47.454;18.966;2023-02-21T01:03:26;31.10;;;18.10;;
77571;SDS011;67214;47.454;18.966;2023-02-21T01:06:11;31.77;;;19.23;;
77571;SDS011;67214;47.454;18.966;2023-02-21T01:08:56;26.60;;;17.87;;
77571;SDS011;67214;47.454;18.966;2023-02-21T01:11:42;30.15;;;19.07;;
77571;SDS011;67214;47.454;18.966;2023-02-21T01:14:27;30.05;;;18.37;;
77571;SDS011;67214;47.454;18.966;2023-02-21T01:17:12;27.90;;;17.20;;
77571;SDS011;67214;47.454;18.966;2023-02-21T01:19:59;32.75;;;17.98;;
77571;SDS011;67214;47.454;18.966;2023-02-21T01:22:45;38.70;;;20.55;;
77571;SDS011;67214;47.454;18.966;2023-02-21T01:25:31;37.53;;;20.65;;
77571;SDS011;67214;47.454;18.966;2023-02-21T01:28:16;34.88;;;20.48;;
77571;SDS011;67214;47.454;18.966;2023-02-21T01:31:01;33.48;;;20.15;;
77571;SDS011;67214;47.454;18.966;2023-02-21T01:33:47;38.67;;;18.73;;
77571;SDS011;67214;47.454;18.966;2023-02-21T01:36:32;33.25;;;20.20;;
77571;SDS011;67214;47.454;18.966;2023-02-21T01:39:17;29.52;;;17.98;;
77571;SDS011;67214;47.454;18.966;2023-02-21T01:42:02;35.25;;;17.80;;
77571;SDS011;67214;47.454;18.966;2023-02-21T01:45:05;32.83;;;18.55;;
77571;SDS011;67214;47.454;18.966;2023-02-21T01:47:37;35.08;;;17.80;;
77571;SDS011;67214;47.454;18.966;2023-02-21T01:50:23;30.72;;;18.12;;
77571;SDS011;67214;47.454;18.966;2023-02-21T01:53:12;31.50;;;18.77;;
77571;SDS011;67214;47.454;18.966;2023-02-21T01:55:59;31.10;;;18.82;;
77571;SDS011;67214;47.454;18.966;2023-02-21T01:58:46;35.83;;;20.37;;
77571;SDS011;67214;47.454;18.966;2023-02-21T02:01:39;31.27;;;18.65;;
77571;SDS011;67214;47.454;18.966;2023-02-21T02:04:31;30.77;;;17.95;;
77571;SDS011;67214;47.454;18.966;2023-02-21T02:07:17;30.30;;;17.67;;
77571;SDS011;67214;47.454;18.966;2023-02-21T02:10:04;32.30;;;17.80;;
77571;SDS011;67214;47.454;18.966;2023-02-21T02:15:43;31.95;;;17.25;;
77571;SDS011;67214;47.454;18.966;2023-02-21T02:18:18;28.15;;;17.32;;
77571;SDS011;67214;47.454;18.966;2023-02-21T02:36:18;26.80;;;16.00;;
77571;SDS011;67214;47.454;18.966;2023-02-21T02:38:14;25.02;;;16.30;;
77571;SDS011;67214;47.454;18.966;2023-02-21T02:43:30;26.25;;;14.70;;
77571;SDS011;67214;47.454;18.966;2023-02-21T02:48:50;26.87;;;15.03;;
77571;SDS011;67214;47.454;18.966;2023-02-21T02:51:37;28.75;;;15.60;;
77571;SDS011;67214;47.454;18.966;2023-02-21T02:54:05;24.52;;;14.73;;
77571;SDS011;67214;47.454;18.966;2023-02-21T02:56:32;23.47;;;13.93;;
77571;SDS011;67214;47.454;18.966;2023-02-21T02:59:03;21.93;;;13.93;;
77571;SDS011;67214;47.454;18.966;2023-02-21T03:01:48;21.60;;;13.70;;
77571;SDS011;67214;47.454;18.966;2023-02-21T03:09:54;24.43;;;14.15;;
77571;SDS011;67214;47.454;18.966;2023-02-21T03:12:40;20.70;;;13.80;;
77571;SDS011;67214;47.454;18.966;2023-02-21T03:15:18;16.52;;;10.00;;
77571;SDS011;67214;47.454;18.966;2023-02-21T03:17:56;12.30;;;7.10;;
77571;SDS011;67214;47.454;18.966;2023-02-21T03:20:23;12.98;;;6.22;;
77571;SDS011;67214;47.454;18.966;2023-02-21T03:22:53;9.78;;;5.60;;
77571;SDS011;67214;47.454;18.966;2023-02-21T03:25:24;11.90;;;7.55;;
77571;SDS011;67214;47.454;18.966;2023-02-21T03:27:52;13.70;;;7.00;;
77571;SDS011;67214;47.454;18.966;2023-02-21T03:30:20;13.62;;;7.62;;
77571;SDS011;67214;47.454;18.966;2023-02-21T03:32:49;11.55;;;7.00;;
77571;SDS011;67214;47.454;18.966;2023-02-21T03:35:19;11.85;;;7.50;;
77571;SDS011;67214;47.454;18.966;2023-02-21T03:37:48;10.68;;;7.50;;
77571;SDS011;67214;47.454;18.966;2023-02-21T03:40:24;13.20;;;7.83;;
77571;SDS011;67214;47.454;18.966;2023-02-21T03:42:57;9.43;;;6.08;;
77571;SDS011;67214;47.454;18.966;2023-02-21T03:45:26;9.05;;;6.12;;
77571;SDS011;67214;47.454;18.966;2023-02-21T03:47:53;8.88;;;4.35;;
77571;SDS011;67214;47.454;18.966;2023-02-21T03:50:21;5.62;;;2.20;;
77571;SDS011;67214;47.454;18.966;2023-02-21T03:52:48;4.58;;;2.05;;
77571;SDS011;67214;47.454;18.966;2023-02-21T03:55:15;6.40;;;2.22;;
77571;SDS011;67214;47.454;18.966;2023-02-21T03:57:44;7.25;;;2.08;;
77571;SDS011;67214;47.454;18.966;2023-02-21T04:00:12;3.72;;;2.10;;
77571;SDS011;67214;47.454;18.966;2023-02-21T04:02:40;3.45;;;1.92;;
77571;SDS011;67214;47.454;18.966;2023-02-21T04:05:08;6.05;;;2.22;;
77571;SDS011;67214;47.454;18.966;2023-02-21T04:07:35;4.35;;;2.45;;
77571;SDS011;67214;47.454;18.966;2023-02-21T04:10:03;4.28;;;2.00;;
77571;SDS011;67214;47.454;18.966;2023-02-21T04:12:30;3.17;;;1.75;;
77571;SDS011;67214;47.454;18.966;2023-02-21T04:14:58;3.65;;;2.10;;
77571;SDS011;67214;47.454;18.966;2023-02-21T04:17:25;3.10;;;1.90;;
77571;SDS011;67214;47.454;18.966;2023-02-21T04:19:53;2.67;;;1.90;;
77571;SDS011;67214;47.454;18.966;2023-02-21T04:22:20;4.08;;;1.75;;
77571;SDS011;67214;47.454;18.966;2023-02-21T04:24:47;3.58;;;2.08;;
77571;SDS011;67214;47.454;18.966;2023-02-21T04:27:15;3.52;;;1.50;;
77571;SDS011;67214;47.454;18.966;2023-02-21T04:29:44;3.30;;;1.87;;
77571;SDS011;67214;47.454;18.966;2023-02-21T04:32:11;6.28;;;2.05;;
77571;SDS011;67214;47.454;18.966;2023-02-21T04:34:39;4.25;;;1.50;;
77571;SDS011;67214;47.454;18.966;2023-02-21T04:37:06;3.50;;;2.10;;
77571;SDS011;67214;47.454;18.966;2023-02-21T04:39:33;3.90;;;1.77;;
77571;SDS011;67214;47.454;18.966;2023-02-21T04:42:01;4.33;;;1.65;;
77571;SDS011;67214;47.454;18.966;2023-02-21T04:44:29;4.87;;;2.05;;
77571;SDS011;67214;47.454;18.966;2023-02-21T04:46:56;3.75;;;1.57;;
77571;SDS011;67214;47.454;18.966;2023-02-21T04:49:23;4.78;;;1.50;;
77571;SDS011;67214;47.454;18.966;2023-02-21T04:51:52;5.42;;;2.00;;
77571;SDS011;67214;47.454;18.966;2023-02-21T04:54:20;2.60;;;1.40;;
77571;SDS011;67214;47.454;18.966;2023-02-21T04:56:47;3.50;;;1.90;;
77571;SDS011;67214;47.454;18.966;2023-02-21T04:59:14;3.87;;;1.52;;
77571;SDS011;67214;47.454;18.966;2023-02-21T05:01:42;4.47;;;1.80;;
77571;SDS011;67214;47.454;18.966;2023-02-21T05:04:09;5.47;;;1.65;;
77571;SDS011;67214;47.454;18.966;2023-02-21T05:06:37;4.58;;;1.75;;
77571;SDS011;67214;47.454;18.966;2023-02-21T05:09:04;5.03;;;1.80;;
77571;SDS011;67214;47.454;18.966;2023-02-21T05:11:33;3.47;;;1.60;;
77571;SDS011;67214;47.454;18.966;2023-02-21T05:14:00;4.58;;;1.80;;
77571;SDS011;67214;47.454;18.966;2023-02-21T05:16:28;5.25;;;1.85;;
77571;SDS011;67214;47.454;18.966;2023-02-21T05:18:55;3.08;;;1.60;;
77571;SDS011;67214;47.454;18.966;2023-02-21T05:21:23;2.83;;;1.60;;
77571;SDS011;67214;47.454;18.966;2023-02-21T05:23:50;4.85;;;2.45;;
77571;SDS011;67214;47.454;18.966;2023-02-21T05:26:21;4.50;;;2.12;;
77571;SDS011;67214;47.454;18.966;2023-02-21T05:28:51;5.90;;;1.95;;
77571;SDS011;67214;47.454;18.966;2023-02-21T05:31:19;3.75;;;2.17;;
77571;SDS011;67214;47.454;18.966;2023-02-21T05:33:47;4.75;;;1.55;;
77571;SDS011;67214;47.454;18.966;2023-02-21T05:36:14;4.42;;;1.90;;
77571;SDS011;67214;47.454;18.966;2023-02-21T05:38:46;3.60;;;1.98;;
77571;SDS011;67214;47.454;18.966;2023-02-21T05:41:15;3.77;;;1.95;;
77571;SDS011;67214;47.454;18.966;2023-02-21T05:43:44;4.53;;;1.87;;
77571;SDS011;67214;47.454;18.966;2023-02-21T05:46:17;8.68;;;2.10;;
77571;SDS011;67214;47.454;18.966;2023-02-21T05:48:49;6.03;;;1.57;;
77571;SDS011;67214;47.454;18.966;2023-02-21T05:51:18;4.78;;;1.80;;
77571;SDS011;67214;47.454;18.966;2023-02-21T05:53:45;6.70;;;2.40;;
77571;SDS011;67214;47.454;18.966;2023-02-21T05:56:14;5.17;;;2.10;;
77571;SDS011;67214;47.454;18.966;2023-02-21T05:58:42;11.00;;;2.40;;
77571;SDS011;67214;47.454;18.966;2023-02-21T06:01:10;6.12;;;1.80;;
77571;SDS011;67214;47.454;18.966;2023-02-21T06:03:37;4.28;;;2.05;;
77571;SDS011;67214;47.454;18.966;2023-02-21T06:06:05;5.62;;;2.67;;
77571;SDS011;67214;47.454;18.966;2023-02-21T06:08:40;6.85;;;2.92;;
77571;SDS011;67214;47.454;18.966;2023-02-21T06:11:09;4.72;;;2.90;;
77571;SDS011;67214;47.454;18.966;2023-02-21T06:13:36;7.87;;;2.45;;
77571;SDS011;67214;47.454;18.966;2023-02-21T06:16:04;7.37;;;2.70;;
77571;SDS011;67214;47.454;18.966;2023-02-21T06:18:32;7.58;;;3.47;;
77571;SDS011;67214;47.454;18.966;2023-02-21T06:20:59;7.47;;;2.75;;
77571;SDS011;67214;47.454;18.966;2023-02-21T06:23:27;4.00;;;1.90;;
77571;SDS011;67214;47.454;18.966;2023-02-21T06:25:54;7.08;;;4.00;;
77571;SDS011;67214;47.454;18.966;2023-02-21T06:28:26;6.47;;;3.12;;
77571;SDS011;67214;47.454;18.966;2023-02-21T06:30:55;9.40;;;5.47;;
77571;SDS011;67214;47.454;18.966;2023-02-21T06:33:22;8.80;;;3.08;;
77571;SDS011;67214;47.454;18.966;2023-02-21T06:35:50;6.45;;;2.87;;
77571;SDS011;67214;47.454;18.966;2023-02-21T06:38:18;4.42;;;2.75;;
77571;SDS011;67214;47.454;18.966;2023-02-21T06:40:45;7.62;;;2.55;;
77571;SDS011;67214;47.454;18.966;2023-02-21T06:43:13;4.97;;;2.45;;
77571;SDS011;67214;47.454;18.966;2023-02-21T06:45:41;5.33;;;2.45;;
77571;SDS011;67214;47.454;18.966;2023-02-21T06:48:12;6.35;;;3.02;;
77571;SDS011;67214;47.454;18.966;2023-02-21T06:50:39;6.78;;;2.65;;
77571;SDS011;67214;47.454;18.966;2023-02-21T06:53:06;5.15;;;2.35;;
77571;SDS011;67214;47.454;18.966;2023-02-21T06:55:33;4.92;;;2.50;;
77571;SDS011;67214;47.454;18.966;2023-02-21T06:58:01;6.45;;;2.90;;
77571;SDS011;67214;47.454;18.966;2023-02-21T07:00:28;7.83;;;2.62;;
77571;SDS011;67214;47.454;18.966;2023-02-21T07:02:57;5.22;;;3.12;;
77571;SDS011;67214;47.454;18.966;2023-02-21T07:05:25;6.60;;;2.67;;
77571;SDS011;67214;47.454;18.966;2023-02-21T07:07:53;4.92;;;2.10;;
77571;SDS011;67214;47.454;18.966;2023-02-21T07:10:21;8.78;;;1.82;;
77571;SDS011;67214;47.454;18.966;2023-02-21T07:12:48;4.65;;;1.80;;
77571;SDS011;67214;47.454;18.966;2023-02-21T07:15:16;5.00;;;1.95;;
77571;SDS011;67214;47.454;18.966;2023-02-21T07:17:43;5.53;;;2.17;;
77571;SDS011;67214;47.454;18.966;2023-02-21T07:20:11;5.47;;;2.55;;
77571;SDS011;67214;47.454;18.966;2023-02-21T07:22:38;5.60;;;1.98;;
77571;SDS011;67214;47.454;18.966;2023-02-21T07:25:06;4.80;;;1.80;;
77571;SDS011;67214;47.454;18.966;2023-02-21T07:27:33;4.70;;;1.82;;
77571;SDS011;67214;47.454;18.966;2023-02-21T07:30:00;7.08;;;2.37;;
77571;SDS011;67214;47.454;18.966;2023-02-21T07:32:28;6.17;;;2.40;;
77571;SDS011;67214;47.454;18.966;2023-02-21T07:34:55;5.33;;;2.10;;
77571;SDS011;67214;47.454;18.966;2023-02-21T07:37:23;5.92;;;1.92;;
77571;SDS011;67214;47.454;18.966;2023-02-21T07:39:52;3.77;;;1.72;;
77571;SDS011;67214;47.454;18.966;2023-02-21T07:42:19;4.80;;;2.25;;
77571;SDS011;67214;47.454;18.966;2023-02-21T07:44:47;4.20;;;1.67;;
77571;SDS011;67214;47.454;18.966;2023-02-21T07:47:14;4.03;;;1.60;;
77571;SDS011;67214;47.454;18.966;2023-02-21T07:49:42;4.33;;;1.75;;
77571;SDS011;67214;47.454;18.966;2023-02-21T07:52:10;4.22;;;1.75;;
77571;SDS011;67214;47.454;18.966;2023-02-21T07:54:37;3.40;;;1.52;;
77571;SDS011;67214;47.454;18.966;2023-02-21T07:57:05;4.55;;;1.82;;
77571;SDS011;67214;47.454;18.966;2023-02-21T07:59:32;2.83;;;1.20;;
77571;SDS011;67214;47.454;18.966;2023-02-21T08:01:59;4.92;;;1.80;;
77571;SDS011;67214;47.454;18.966;2023-02-21T08:04:27;4.45;;;1.70;;
77571;SDS011;67214;47.454;18.966;2023-02-21T08:06:58;3.25;;;1.50;;
77571;SDS011;67214;47.454;18.966;2023-02-21T08:09:26;3.15;;;1.57;;
77571;SDS011;67214;47.454;18.966;2023-02-21T08:11:54;4.97;;;1.95;;
77571;SDS011;67214;47.454;18.966;2023-02-21T08:14:21;4.25;;;1.70;;
77571;SDS011;67214;47.454;18.966;2023-02-21T08:16:48;3.47;;;1.82;;
77571;SDS011;67214;47.454;18.966;2023-02-21T08:19:16;4.15;;;1.95;;
77571;SDS011;67214;47.454;18.966;2023-02-21T08:21:49;3.05;;;1.90;;
77571;SDS011;67214;47.454;18.966;2023-02-21T08:24:13;4.85;;;1.98;;
77571;SDS011;67214;47.454;18.966;2023-02-21T08:26:42;3.15;;;1.55;;
77571;SDS011;67214;47.454;18.966;2023-02-21T08:29:10;4.55;;;1.75;;
77571;SDS011;67214;47.454;18.966;2023-02-21T08:31:39;5.90;;;1.87;;
77571;SDS011;67214;47.454;18.966;2023-02-21T08:34:09;3.90;;;1.55;;
77571;SDS011;67214;47.454;18.966;2023-02-21T08:36:38;2.65;;;1.62;;
77571;SDS011;67214;47.454;18.966;2023-02-21T08:39:08;4.25;;;2.00;;
77571;SDS011;67214;47.454;18.966;2023-02-21T08:41:44;3.02;;;1.70;;
77571;SDS011;67214;47.454;18.966;2023-02-21T08:44:10;4.67;;;2.02;;
77571;SDS011;67214;47.454;18.966;2023-02-21T08:46:40;5.47;;;2.98;;
77571;SDS011;67214;47.454;18.966;2023-02-21T08:49:09;5.83;;;2.37;;
77571;SDS011;67214;47.454;18.966;2023-02-21T08:51:36;3.50;;;2.20;;
77571;SDS011;67214;47.454;18.966;2023-02-21T08:54:05;4.22;;;2.20;;
77571;SDS011;67214;47.454;18.966;2023-02-21T08:56:33;5.17;;;2.12;;
77571;SDS011;67214;47.454;18.966;2023-02-21T08:59:00;5.20;;;2.65;;
77571;SDS011;67214;47.454;18.966;2023-02-21T09:01:30;3.12;;;1.85;;
77571;SDS011;67214;47.454;18.966;2023-02-21T09:03:59;3.80;;;2.12;;
77571;SDS011;67214;47.454;18.966;2023-02-21T09:06:28;5.85;;;2.02;;
77571;SDS011;67214;47.454;18.966;2023-02-21T09:08:55;3.42;;;1.75;;
77571;SDS011;67214;47.454;18.966;2023-02-21T09:11:23;5.12;;;2.22;;
77571;SDS011;67214;47.454;18.966;2023-02-21T09:13:50;4.65;;;2.15;;
77571;SDS011;67214;47.454;18.966;2023-02-21T09:16:19;6.37;;;2.17;;
77571;SDS011;67214;47.454;18.966;2023-02-21T09:18:56;3.75;;;2.15;;
77571;SDS011;67214;47.454;18.966;2023-02-21T09:21:26;2.35;;;2.00;;
77571;SDS011;67214;47.454;18.966;2023-02-21T09:23:55;5.90;;;2.05;;
77571;SDS011;67214;47.454;18.966;2023-02-21T09:26:24;3.98;;;2.37;;
77571;SDS011;67214;47.454;18.966;2023-02-21T09:28:53;5.22;;;1.90;;
77571;SDS011;67214;47.454;18.966;2023-02-21T09:31:20;4.83;;;2.02;;
77571;SDS011;67214;47.454;18.966;2023-02-21T09:33:48;3.05;;;1.92;;
77571;SDS011;67214;47.454;18.966;2023-02-21T09:36:15;6.50;;;1.98;;
77571;SDS011;67214;47.454;18.966;2023-02-21T09:38:45;3.62;;;2.20;;
77571;SDS011;67214;47.454;18.966;2023-02-21T09:41:12;5.25;;;2.08;;
77571;SDS011;67214;47.454;18.966;2023-02-21T09:43:42;3.33;;;1.90;;
77571;SDS011;67214;47.454;18.966;2023-02-21T09:46:15;3.95;;;2.05;;
77571;SDS011;67214;47.454;18.966;2023-02-21T09:48:50;3.00;;;1.70;;
77571;SDS011;67214;47.454;18.966;2023-02-21T09:51:19;4.85;;;1.90;;
77571;SDS011;67214;47.454;18.966;2023-02-21T09:53:47;4.03;;;2.08;;
77571;SDS011;67214;47.454;18.966;2023-02-21T09:56:33;4.62;;;1.98;;
77571;SDS011;67214;47.454;18.966;2023-02-21T09:58:58;3.08;;;1.87;;
77571;SDS011;67214;47.454;18.966;2023-02-21T10:07:08;5.45;;;2.65;;
77571;SDS011;67214;47.454;18.966;2023-02-21T10:09:52;3.77;;;1.77;;
77571;SDS011;67214;47.454;18.966;2023-02-21T10:12:23;3.45;;;1.90;;
77571;SDS011;67214;47.454;18.966;2023-02-21T10:15:01;3.90;;;2.17;;
77571;SDS011;67214;47.454;18.966;2023-02-21T10:20:52;3.90;;;1.60;;
77571;SDS011;67214;47.454;18.966;2023-02-21T10:23:34;4.58;;;2.42;;
77571;SDS011;67214;47.454;18.966;2023-02-21T10:26:04;3.15;;;2.00;;
77571;SDS011;67214;47.454;18.966;2023-02-21T10:28:36;3.35;;;2.00;;
77571;SDS011;67214;47.454;18.966;2023-02-21T10:31:10;3.40;;;1.65;;
77571;SDS011;67214;47.454;18.966;2023-02-21T10:33:38;4.85;;;1.92;;
77571;SDS011;67214;47.454;18.966;2023-02-21T10:36:12;4.92;;;1.98;;
77571;SDS011;67214;47.454;18.966;2023-02-21T10:38:52;3.65;;;1.92;;
77571;SDS011;67214;47.454;18.966;2023-02-21T10:41:21;3.90;;;2.08;;
77571;SDS011;67214;47.454;18.966;2023-02-21T10:43:51;4.17;;;2.62;;
77571;SDS011;67214;47.454;18.966;2023-02-21T10:46:29;3.55;;;2.22;;
77571;SDS011;67214;47.454;18.966;2023-02-21T10:49:16;3.02;;;1.70;;
77571;SDS011;67214;47.454;18.966;2023-02-21T10:52:05;4.10;;;2.25;;
77571;SDS011;67214;47.454;18.966;2023-02-21T10:54:37;2.60;;;2.00;;
77571;SDS011;67214;47.454;18.966;2023-02-21T10:57:06;4.92;;;2.15;;
77571;SDS011;67214;47.454;18.966;2023-02-21T10:59:37;4.87;;;2.17;;
77571;SDS011;67214;47.454;18.966;2023-02-21T11:02:53;4.85;;;2.40;;
77571;SDS011;67214;47.454;18.966;2023-02-21T11:05:07;4.35;;;2.20;;
77571;SDS011;67214;47.454;18.966;2023-02-21T11:07:36;3.87;;;2.40;;
77571;SDS011;67214;47.454;18.966;2023-02-21T11:13:04;6.12;;;2.37;;
77571;SDS011;67214;47.454;18.966;2023-02-21T11:15:33;4.37;;;1.75;;
77571;SDS011;67214;47.454;18.966;2023-02-21T11:18:02;4.22;;;1.90;;
77571;SDS011;67214;47.454;18.966;2023-02-21T11:20:31;5.25;;;2.37;;
77571;SDS011;67214;47.454;18.966;2023-02-21T11:22:59;3.62;;;1.92;;
77571;SDS011;67214;47.454;18.966;2023-02-21T11:25:27;4.05;;;2.37;;
77571;SDS011;67214;47.454;18.966;2023-02-21T11:30:49;3.50;;;2.20;;
77571;SDS011;67214;47.454;18.966;2023-02-21T11:33:19;3.08;;;2.27;;
77571;SDS011;67214;47.454;18.966;2023-02-21T11:35:51;5.30;;;2.67;;
77571;SDS011;67214;47.454;18.966;2023-02-21T11:38:39;3.27;;;2.42;;
77571;SDS011;67214;47.454;18.966;2023-02-21T11:43:50;5.17;;;2.85;;
77571;SDS011;67214;47.454;18.966;2023-02-21T11:46:32;3.12;;;2.35;;
77571;SDS011;67214;47.454;18.966;2023-02-21T11:49:07;5.12;;;2.65;;
77571;SDS011;67214;47.454;18.966;2023-02-21T11:51:53;4.67;;;2.58;;
77571;SDS011;67214;47.454;18.966;2023-02-21T11:54:24;3.22;;;2.37;;
77571;SDS011;67214;47.454;18.966;2023-02-21T12:02:25;3.55;;;2.58;;
77571;SDS011;67214;47.454;18.966;2023-02-21T12:05:04;5.08;;;2.67;;
77571;SDS011;67214;47.454;18.966;2023-02-21T12:07:55;5.28;;;2.77;;
77571;SDS011;67214;47.454;18.966;2023-02-21T12:22:23;4.70;;;2.58;;
77571;SDS011;67214;47.454;18.966;2023-02-21T12:27:33;3.65;;;2.05;;
77571;SDS011;67214;47.454;18.966;2023-02-21T12:30:24;3.40;;;2.33;;
77571;SDS011;67214;47.454;18.966;2023-02-21T12:44:17;4.60;;;2.20;;
77571;SDS011;67214;47.454;18.966;2023-02-21T12:49:34;4.08;;;2.15;;
77571;SDS011;67214;47.454;18.966;2023-02-21T12:57:13;3.47;;;2.47;;
77571;SDS011;67214;47.454;18.966;2023-02-21T13:02:38;5.12;;;2.20;;
77571;SDS011;67214;47.454;18.966;2023-02-21T13:05:13;3.52;;;2.00;;
77571;SDS011;67214;47.454;18.966;2023-02-21T13:10:19;3.08;;;2.05;;
77571;SDS011;67214;47.454;18.966;2023-02-21T13:13:07;4.72;;;2.67;;
77571;SDS011;67214;47.454;18.966;2023-02-21T13:15:37;4.45;;;2.12;;
77571;SDS011;67214;47.454;18.966;2023-02-21T13:18:10;4.42;;;2.60;;
77571;SDS011;67214;47.454;18.966;2023-02-21T13:20:46;4.37;;;2.52;;
77571;SDS011;67214;47.454;18.966;2023-02-21T13:26:25;5.78;;;2.22;;
77571;SDS011;67214;47.454;18.966;2023-02-21T13:28:53;3.87;;;2.10;;
77571;SDS011;67214;47.454;18.966;2023-02-21T13:31:23;5.65;;;3.20;;
77571;SDS011;67214;47.454;18.966;2023-02-21T13:33:56;5.83;;;2.85;;
77571;SDS011;67214;47.454;18.966;2023-02-21T13:36:44;5.10;;;3.00;;
77571;SDS011;67214;47.454;18.966;2023-02-21T13:39:28;5.33;;;2.40;;
77571;SDS011;67214;47.454;18.966;2023-02-21T13:42:09;4.55;;;2.47;;
77571;SDS011;67214;47.454;18.966;2023-02-21T13:44:40;4.75;;;2.17;;
77571;SDS011;67214;47.454;18.966;2023-02-21T13:47:13;5.83;;;2.80;;
77571;SDS011;67214;47.454;18.966;2023-02-21T13:57:46;3.17;;;1.92;;
77571;SDS011;67214;47.454;18.966;2023-02-21T14:02:59;3.37;;;1.90;;
77571;SDS011;67214;47.454;18.966;2023-02-21T14:16:25;4.75;;;2.10;;
77571;SDS011;67214;47.454;18.966;2023-02-21T14:19:00;3.62;;;2.30;;
77571;SDS011;67214;47.454;18.966;2023-02-21T14:26:49;5.05;;;2.25;;
77571;SDS011;67214;47.454;18.966;2023-02-21T14:34:47;4.08;;;2.40;;
77571;SDS011;67214;47.454;18.966;2023-02-21T14:37:15;3.50;;;1.92;;
77571;SDS011;67214;47.454;18.966;2023-02-21T14:40:00;2.72;;;1.72;;
77571;SDS011;67214;47.454;18.966;2023-02-21T14:42:45;3.33;;;1.75;;
77571;SDS011;67214;47.454;18.966;2023-02-21T14:45:25;4.40;;;2.17;;
77571;SDS011;67214;47.454;18.966;2023-02-21T14:56:54;3.20;;;1.62;;
77571;SDS011;67214;47.454;18.966;2023-02-21T15:02:24;3.10;;;1.62;;
77571;SDS011;67214;47.454;18.966;2023-02-21T15:05:18;2.90;;;1.77;;
77571;SDS011;67214;47.454;18.966;2023-02-21T15:08:04;2.80;;;1.95;;
77571;SDS011;67214;47.454;18.966;2023-02-21T15:10:44;3.02;;;1.90;;
77571;SDS011;67214;47.454;18.966;2023-02-21T15:18:31;2.72;;;1.67;;
77571;SDS011;67214;47.454;18.966;2023-02-21T15:21:15;2.27;;;1.60;;
77571;SDS011;67214;47.454;18.966;2023-02-21T15:23:43;2.17;;;1.62;;
77571;SDS011;67214;47.454;18.966;2023-02-21T15:26:16;3.58;;;1.25;;
77571;SDS011;67214;47.454;18.966;2023-02-21T15:29:06;3.95;;;2.10;;
77571;SDS011;67214;47.454;18.966;2023-02-21T15:31:52;3.90;;;2.15;;
77571;SDS011;67214;47.454;18.966;2023-02-21T15:34:29;4.42;;;1.80;;
77571;SDS011;67214;47.454;18.966;2023-02-21T15:39:37;3.45;;;1.75;;
77571;SDS011;67214;47.454;18.966;2023-02-21T15:42:08;3.60;;;1.70;;
77571;SDS011;67214;47.454;18.966;2023-02-21T15:44:41;3.80;;;1.80;;
77571;SDS011;67214;47.454;18.966;2023-02-21T15:47:10;3.55;;;1.87;;
77571;SDS011;67214;47.454;18.966;2023-02-21T15:49:41;4.00;;;2.00;;
77571;SDS011;67214;47.454;18.966;2023-02-21T15:52:27;3.50;;;1.60;;
77571;SDS011;67214;47.454;18.966;2023-02-21T15:55:12;4.92;;;2.10;;
77571;SDS011;67214;47.454;18.966;2023-02-21T15:57:42;4.45;;;2.58;;
77571;SDS011;67214;47.454;18.966;2023-02-21T16:00:45;2.95;;;2.05;;
77571;SDS011;67214;47.454;18.966;2023-02-21T16:02:49;7.42;;;3.02;;
77571;SDS011;67214;47.454;18.966;2023-02-21T16:05:26;5.55;;;2.52;;
77571;SDS011;67214;47.454;18.966;2023-02-21T16:08:01;3.98;;;2.22;;
77571;SDS011;67214;47.454;18.966;2023-02-21T16:10:30;3.37;;;1.72;;
77571;SDS011;67214;47.454;18.966;2023-02-21T16:13:01;4.30;;;2.42;;
77571;SDS011;67214;47.454;18.966;2023-02-21T16:15:34;3.08;;;1.87;;
77571;SDS011;67214;47.454;18.966;2023-02-21T16:18:02;4.08;;;3.05;;
77571;SDS011;67214;47.454;18.966;2023-02-21T16:20:39;3.05;;;2.12;;
77571;SDS011;67214;47.454;18.966;2023-02-21T16:23:12;3.85;;;2.62;;
77571;SDS011;67214;47.454;18.966;2023-02-21T16:25:54;5.25;;;2.20;;
77571;SDS011;67214;47.454;18.966;2023-02-21T16:28:23;4.33;;;2.27;;
77571;SDS011;67214;47.454;18.966;2023-02-21T16:30:51;3.40;;;2.00;;
77571;SDS011;67214;47.454;18.966;2023-02-21T16:33:21;4.83;;;2.85;;
77571;SDS011;67214;47.454;18.966;2023-02-21T16:35:48;5.47;;;3.20;;
77571;SDS011;67214;47.454;18.966;2023-02-21T16:38:17;6.60;;;3.75;;
77571;SDS011;67214;47.454;18.966;2023-02-21T16:40:46;7.45;;;2.83;;
77571;SDS011;67214;47.454;18.966;2023-02-21T16:43:15;5.20;;;2.72;;
77571;SDS011;67214;47.454;18.966;2023-02-21T16:45:45;16.90;;;4.20;;
77571;SDS011;67214;47.454;18.966;2023-02-21T16:48:19;7.70;;;3.55;;
77571;SDS011;67214;47.454;18.966;2023-02-21T16:50:46;8.23;;;3.17;;
77571;SDS011;67214;47.454;18.966;2023-02-21T16:53:15;10.28;;;7.12;;
77571;SDS011;67214;47.454;18.966;2023-02-21T16:55:45;8.05;;;4.30;;
77571;SDS011;67214;47.454;18.966;2023-02-21T16:58:16;6.50;;;3.35;;
77571;SDS011;67214;47.454;18.966;2023-02-21T17:00:49;4.37;;;3.20;;
77571;SDS011;67214;47.454;18.966;2023-02-21T17:03:18;5.83;;;3.00;;
77571;SDS011;67214;47.454;18.966;2023-02-21T17:05:46;6.50;;;2.12;;
77571;SDS011;67214;47.454;18.966;2023-02-21T17:08:17;3.90;;;2.35;;
77571;SDS011;67214;47.454;18.966;2023-02-21T17:10:45;5.00;;;2.40;;
77571;SDS011;67214;47.454;18.966;2023-02-21T17:13:13;5.47;;;3.55;;
77571;SDS011;67214;47.454;18.966;2023-02-21T17:15:43;5.12;;;2.98;;
77571;SDS011;67214;47.454;18.966;2023-02-21T17:18:12;5.12;;;3.05;;
77571;SDS011;67214;47.454;18.966;2023-02-21T17:20:40;8.23;;;2.90;;
77571;SDS011;67214;47.454;18.966;2023-02-21T17:23:07;5.53;;;2.80;;
77571;SDS011;67214;47.454;18.966;2023-02-21T17:25:37;7.05;;;3.10;;
77571;SDS011;67214;47.454;18.966;2023-02-21T17:28:04;6.97;;;3.35;;